createdAt,value
2023-05-17T00:04:20.594Z,41.74
2023-05-17T00:09:40.138Z,41.76
2023-05-17T00:14:55.175Z,42.06
2023-05-17T00:20:38.413Z,42.21
2023-05-17T00:25:56.263Z,42.12
2023-05-17T00:31:13.711Z,41.99
2023-05-17T00:36:17.102Z,42.32
2023-05-17T00:41:27.447Z,42.80
2023-05-17T00:46:34.873Z,42.83
2023-05-17T00:51:42.455Z,42.84
2023-05-17T00:56:58.177Z,43.07
2023-05-17T01:02:04.113Z,42.91
2023-05-17T01:07:18.367Z,43.46
2023-05-17T01:12:31.236Z,43.62
2023-05-17T01:18:30.557Z,43.88
2023-05-17T01:24:02.566Z,44.38
2023-05-17T01:29:16.764Z,44.43
2023-05-17T01:36:40.543Z,44.66
2023-05-17T01:40:17.720Z,45.14
2023-05-17T01:45:25.293Z,45.00
2023-05-17T01:50:32.833Z,44.95
2023-05-17T01:55:40.324Z,45.26
2023-05-17T02:00:47.376Z,45.39
2023-05-17T02:05:54.549Z,45.22
2023-05-17T02:11:08.056Z,45.80
2023-05-17T02:16:15.259Z,45.70
2023-05-17T02:21:22.477Z,45.93
2023-05-17T02:26:29.791Z,46.22
2023-05-17T02:31:37.024Z,46.05
2023-05-17T02:36:44.199Z,45.92
2023-05-17T02:41:51.791Z,45.82
2023-05-17T02:47:05.693Z,46.44
2023-05-17T02:52:14.823Z,46.36
2023-05-17T02:57:22.748Z,46.01
2023-05-17T03:03:22.409Z,46.35
2023-05-17T03:08:51.961Z,46.24
2023-05-17T03:13:43.868Z,45.88
2023-05-17T03:19:26.935Z,46.03
2023-05-17T03:24:34.039Z,46.08
2023-05-17T03:30:20.996Z,45.54
2023-05-17T03:35:28.449Z,45.45
2023-05-17T03:40:35.371Z,45.28
2023-05-17T03:45:42.655Z,45.20
2023-05-17T03:50:49.773Z,45.18
2023-05-17T03:55:56.987Z,44.95
2023-05-17T04:01:04.371Z,45.12
2023-05-17T04:06:11.538Z,45.36
2023-05-17T04:11:18.852Z,45.23
2023-05-17T04:16:35.567Z,45.59
2023-05-17T04:21:40.757Z,45.53
2023-05-17T04:26:48.090Z,45.53
2023-05-17T04:31:55.527Z,45.46
2023-05-17T04:37:02.653Z,45.27
2023-05-17T04:42:09.946Z,45.49
2023-05-17T04:47:17.532Z,45.40
2023-05-17T04:52:24.673Z,45.47
2023-05-17T04:57:31.910Z,45.51
2023-05-17T05:02:39.411Z,45.64
2023-05-17T05:07:46.516Z,45.66
2023-05-17T05:12:53.744Z,45.66
2023-05-17T05:18:01.161Z,45.59
2023-05-17T05:23:08.192Z,45.02
2023-05-17T05:28:15.762Z,45.11
2023-05-17T05:33:24.076Z,44.95
2023-05-17T05:38:41.801Z,45.20
2023-05-17T05:43:49.473Z,45.38
2023-05-17T05:49:06.720Z,45.45
2023-05-17T05:54:50.727Z,45.98
2023-05-17T06:00:48.926Z,45.81
2023-05-17T06:06:36.243Z,45.61
2023-05-17T06:11:55.730Z,45.62
2023-05-17T06:17:01.815Z,45.21
2023-05-17T06:22:27.031Z,44.87
2023-05-17T06:27:37.217Z,45.39
2023-05-17T06:32:41.334Z,44.73
2023-05-17T06:38:24.544Z,43.82
2023-05-17T06:43:32.178Z,43.92
2023-05-17T06:48:58.878Z,44.14
2023-05-17T06:54:41.518Z,43.75
2023-05-17T07:00:43.338Z,44.12
2023-05-17T07:05:11.915Z,43.78
2023-05-17T07:10:23.812Z,43.83
2023-05-17T07:15:31.370Z,43.30
2023-05-17T07:20:50.563Z,43.75
2023-05-17T07:25:53.486Z,44.44
2023-05-17T07:31:05.281Z,43.82
2023-05-17T07:37:18.329Z,43.98
2023-05-17T07:42:05.619Z,43.88
2023-05-17T07:47:35.250Z,44.46
2023-05-17T07:53:16.126Z,43.97
2023-05-17T07:58:33.314Z,44.08
2023-05-17T08:04:28.008Z,43.56
2023-05-17T08:09:41.788Z,43.40
2023-05-17T08:14:51.421Z,43.43
2023-05-17T08:19:58.604Z,42.93
2023-05-17T08:25:05.719Z,42.67
2023-05-17T08:30:18.113Z,42.21
2023-05-17T08:35:20.306Z,42.52
2023-05-17T08:40:33.890Z,42.43
2023-05-17T08:45:59.079Z,42.73
2023-05-17T08:51:58.369Z,42.68
2023-05-17T08:57:09.017Z,42.78
2023-05-17T09:02:16.784Z,42.94
2023-05-17T09:07:36.498Z,42.77
2023-05-17T09:13:28.952Z,42.79
2023-05-17T09:18:10.583Z,43.12
2023-05-17T09:23:19.132Z,42.51
2023-05-17T09:28:54.892Z,42.47
2023-05-17T09:34:43.343Z,42.18
2023-05-17T09:39:58.735Z,41.90
2023-05-17T09:45:15.393Z,41.97
2023-05-17T09:50:38.901Z,41.48
2023-05-17T09:55:51.795Z,41.24
2023-05-17T10:01:04.978Z,41.29
2023-05-17T10:06:13.421Z,41.55
2023-05-17T10:11:19.761Z,40.79
2023-05-17T10:16:34.555Z,40.57
2023-05-17T10:21:41.313Z,40.21
2023-05-17T10:26:48.520Z,39.87
2023-05-17T10:31:55.693Z,39.15
2023-05-17T10:37:02.925Z,39.21
2023-05-17T10:42:14.804Z,38.65
2023-05-17T10:47:17.569Z,39.08
2023-05-17T10:52:24.839Z,38.41
2023-05-17T10:57:36.094Z,38.14
2023-05-17T11:02:39.291Z,38.53
2023-05-17T11:07:46.484Z,38.57
2023-05-17T11:12:53.885Z,37.90
2023-05-17T11:18:01.379Z,38.03
2023-05-17T11:23:09.084Z,38.40
2023-05-17T11:28:16.559Z,38.37
2023-05-17T11:33:33.495Z,38.59
2023-05-17T11:38:31.184Z,38.12
2023-05-17T11:43:38.463Z,38.01
2023-05-17T11:48:45.818Z,38.45
2023-05-17T11:53:56.418Z,38.32
2023-05-17T11:59:01.549Z,38.61
2023-05-17T12:04:09.128Z,38.54
2023-05-17T12:09:23.844Z,38.23
2023-05-17T12:14:28.073Z,38.51
2023-05-17T12:19:36.560Z,38.50
2023-05-17T12:24:54.131Z,38.27
2023-05-17T12:29:53.670Z,38.74
2023-05-17T12:35:11.894Z,38.67
2023-05-17T12:40:25.584Z,38.59
2023-05-17T12:45:33.041Z,38.94
2023-05-17T12:50:40.225Z,38.87
2023-05-17T12:55:47.453Z,38.62
2023-05-17T13:00:54.645Z,38.28
2023-05-17T13:06:01.878Z,38.48
2023-05-17T13:11:09.076Z,38.67
2023-05-17T13:16:16.317Z,38.48
2023-05-17T13:21:23.530Z,38.57
2023-05-17T13:26:42.620Z,38.39
2023-05-17T13:31:50.115Z,38.76
2023-05-17T13:37:00.133Z,38.36
2023-05-17T13:42:14.918Z,38.99
2023-05-17T13:47:22.148Z,38.99
2023-05-17T13:52:29.322Z,38.71
2023-05-17T13:57:36.635Z,38.80
2023-05-17T14:02:44.093Z,38.45
2023-05-17T14:08:06.312Z,38.99
2023-05-17T14:13:13.594Z,38.87
2023-05-17T14:18:21.092Z,38.12
2023-05-17T14:23:31.391Z,38.84
2023-05-17T14:28:38.634Z,38.79
2023-05-17T14:33:45.813Z,38.60
2023-05-17T14:38:53.018Z,38.41
2023-05-17T14:44:00.298Z,38.95
2023-05-17T14:49:07.540Z,38.80
2023-05-17T14:54:14.694Z,39.16
2023-05-17T14:59:21.930Z,39.02
2023-05-17T15:04:29.196Z,38.25
2023-05-17T15:09:36.277Z,38.38
2023-05-17T15:14:43.454Z,39.12
2023-05-17T15:19:50.879Z,38.32
2023-05-17T15:24:58.124Z,38.90
2023-05-17T15:30:05.334Z,39.22
2023-05-17T15:35:12.461Z,38.84
2023-05-17T15:40:19.646Z,38.67
2023-05-17T15:45:26.942Z,39.53
2023-05-17T15:50:34.076Z,39.76
2023-05-17T15:55:41.386Z,38.67
2023-05-17T16:00:48.697Z,38.63
2023-05-17T16:05:55.949Z,38.38
2023-05-17T16:11:03.052Z,38.70
2023-05-17T16:16:13.419Z,38.35
2023-05-17T16:21:23.164Z,38.83
2023-05-17T16:26:30.518Z,38.82
2023-05-17T16:31:38.071Z,38.65
2023-05-17T16:36:45.522Z,38.90
2023-05-17T16:41:53.030Z,38.91
2023-05-17T16:47:00.679Z,38.53
2023-05-17T16:52:08.293Z,38.83
2023-05-17T16:57:16.009Z,38.94
2023-05-17T17:02:23.697Z,39.04
2023-05-17T17:07:31.242Z,38.70
2023-05-17T17:12:38.860Z,38.86
2023-05-17T17:17:46.738Z,38.47
2023-05-17T17:22:54.277Z,38.41
2023-05-17T17:28:02.012Z,38.80
2023-05-17T17:33:09.856Z,38.69
2023-05-17T17:38:17.440Z,38.77
2023-05-17T17:43:25.046Z,38.83
2023-05-17T17:48:32.793Z,38.80
2023-05-17T17:53:40.792Z,38.88
2023-05-17T17:58:48.705Z,38.99
2023-05-17T18:03:56.352Z,39.01
2023-05-17T18:09:04.051Z,38.96
2023-05-17T18:14:11.780Z,39.40
2023-05-17T18:19:19.732Z,40.21
2023-05-17T18:24:27.301Z,40.15
2023-05-17T18:29:35.023Z,40.04
2023-05-17T18:34:42.698Z,39.46
2023-05-17T18:39:50.441Z,39.47
2023-05-17T18:44:58.184Z,39.05
2023-05-17T18:50:05.903Z,39.17
2023-05-17T18:55:13.905Z,38.86
2023-05-17T19:00:21.733Z,38.86
2023-05-17T19:05:29.557Z,38.57
2023-05-17T19:10:37.154Z,38.80
2023-05-17T19:15:44.999Z,38.60
2023-05-17T19:20:53.132Z,38.50
2023-05-17T19:26:00.314Z,38.54
2023-05-17T19:31:08.145Z,38.60
2023-05-17T19:36:15.655Z,38.63
2023-05-17T19:41:23.354Z,38.57
2023-05-17T19:46:31.149Z,38.51
2023-05-17T19:51:38.919Z,37.67
2023-05-17T19:56:47.174Z,38.20
2023-05-17T20:01:54.758Z,38.28
2023-05-17T20:07:02.582Z,37.86
2023-05-17T20:12:10.200Z,37.82
2023-05-17T20:17:17.985Z,37.56
2023-05-17T20:22:25.831Z,37.25
2023-05-17T20:27:33.438Z,37.77
2023-05-17T20:32:41.297Z,37.86
2023-05-17T20:37:49.085Z,37.99
2023-05-17T20:42:56.870Z,37.96
2023-05-17T20:48:04.546Z,38.32
2023-05-17T20:53:12.233Z,38.10
2023-05-17T20:58:20.140Z,38.25
2023-05-17T21:03:28.045Z,38.09
2023-05-17T21:08:34.752Z,37.74
2023-05-17T21:13:41.907Z,36.90
2023-05-17T21:18:49.427Z,37.11
2023-05-17T21:23:56.630Z,36.96
2023-05-17T21:29:03.980Z,36.88
2023-05-17T21:34:11.194Z,37.25
2023-05-17T21:39:18.501Z,36.87
2023-05-17T21:44:25.715Z,36.96
2023-05-17T21:49:32.944Z,36.89
2023-05-17T21:54:40.260Z,37.04
2023-05-17T21:59:47.489Z,36.63
2023-05-17T22:04:54.796Z,37.00
2023-05-17T22:10:02.352Z,37.09
2023-05-17T22:15:09.553Z,37.03
2023-05-17T22:20:16.737Z,36.64
2023-05-17T22:25:24.124Z,36.43
2023-05-17T22:30:31.714Z,36.74
2023-05-17T22:35:38.804Z,37.04
2023-05-17T22:40:46.066Z,37.25
2023-05-17T22:45:53.332Z,37.42
2023-05-17T22:51:00.772Z,37.48
2023-05-17T22:56:43.693Z,37.55
2023-05-17T23:02:06.745Z,37.61
2023-05-17T23:07:24.466Z,37.65
2023-05-17T23:12:36.769Z,37.71
2023-05-17T23:17:58.124Z,37.76
2023-05-17T23:23:01.180Z,37.83
2023-05-17T23:28:38.728Z,37.90
2023-05-17T23:33:49.107Z,37.96
2023-05-17T23:39:04.500Z,38.01
2023-05-17T23:44:07.015Z,38.06
2023-05-17T23:49:29.456Z,38.12
2023-05-17T23:54:38.386Z,38.23
2023-05-17T23:59:49.171Z,38.28
